Main page
METAR-TAF:

METAR-TAF

Airports :

S.t James Municipal Airport

St. James, Minnesota, United States

latitude: 43-59-11N, longitude: 094-33-29W, elevation: 1066 ft

Current weather observation

The report was made 16 minutes ago, at 22:15 UTC
Wind 7 mph from the South/Southwest
Temperature 16°F
Humidity 62%
Pressure 30.63 in. Hg
Visibility: 10 miles

METAR: KJYG 202215Z 20006KT 10SM M09/M15 A3063 RMK AO2 PWINO

Time: 16:31 (22:31 UTC)


TAF: missing

Weather observations and forecasts of more than 4000 airports (METAR and TAF reports).

The available stations are represented by yellow and red dots on the map.

Hover mouse over dot to see the name of the station.

Then click to see weather observations and forecasts.

To change the map : click on the green buttons with a black cross to zoom in, on the green button with a dash to zoom out, or on the green arrows for adjacent maps.


METAR-TAF: